sensor_id;sensor_type;location;lat;lon;timestamp;P1;durP1;ratioP1;P2;durP2;ratioP2
70715;SDS011;59053;50.832;12.882;2022-07-31T00:02:18;25.47;;;16.17;;
70715;SDS011;59053;50.832;12.882;2022-07-31T00:04:44;24.70;;;15.93;;
70715;SDS011;59053;50.832;12.882;2022-07-31T00:07:09;23.67;;;16.73;;
70715;SDS011;59053;50.832;12.882;2022-07-31T00:09:35;24.80;;;16.90;;
70715;SDS011;59053;50.832;12.882;2022-07-31T00:12:01;25.83;;;17.70;;
70715;SDS011;59053;50.832;12.882;2022-07-31T00:14:26;25.20;;;16.77;;
70715;SDS011;59053;50.832;12.882;2022-07-31T00:16:51;27.90;;;17.07;;
70715;SDS011;59053;50.832;12.882;2022-07-31T00:19:17;29.27;;;17.00;;
70715;SDS011;59053;50.832;12.882;2022-07-31T00:21:42;28.00;;;17.87;;
70715;SDS011;59053;50.832;12.882;2022-07-31T00:24:07;26.83;;;16.77;;
70715;SDS011;59053;50.832;12.882;2022-07-31T00:26:33;25.67;;;17.07;;
70715;SDS011;59053;50.832;12.882;2022-07-31T00:28:58;30.03;;;17.43;;
70715;SDS011;59053;50.832;12.882;2022-07-31T00:31:24;26.30;;;17.67;;
70715;SDS011;59053;50.832;12.882;2022-07-31T00:33:49;25.58;;;16.52;;
70715;SDS011;59053;50.832;12.882;2022-07-31T00:36:14;25.73;;;17.47;;
70715;SDS011;59053;50.832;12.882;2022-07-31T00:38:40;25.13;;;16.90;;
70715;SDS011;59053;50.832;12.882;2022-07-31T00:41:06;25.30;;;17.08;;
70715;SDS011;59053;50.832;12.882;2022-07-31T00:43:31;27.83;;;17.23;;
70715;SDS011;59053;50.832;12.882;2022-07-31T00:45:56;25.87;;;17.30;;
70715;SDS011;59053;50.832;12.882;2022-07-31T00:48:23;26.40;;;16.70;;
70715;SDS011;59053;50.832;12.882;2022-07-31T00:50:48;26.07;;;16.20;;
70715;SDS011;59053;50.832;12.882;2022-07-31T00:53:14;28.73;;;16.90;;
70715;SDS011;59053;50.832;12.882;2022-07-31T00:55:40;25.33;;;15.63;;
70715;SDS011;59053;50.832;12.882;2022-07-31T00:58:05;25.27;;;15.88;;
70715;SDS011;59053;50.832;12.882;2022-07-31T01:00:31;22.53;;;15.67;;
70715;SDS011;59053;50.832;12.882;2022-07-31T01:02:56;23.37;;;14.90;;
70715;SDS011;59053;50.832;12.882;2022-07-31T01:05:22;22.10;;;15.70;;
70715;SDS011;59053;50.832;12.882;2022-07-31T01:07:47;25.40;;;15.50;;
70715;SDS011;59053;50.832;12.882;2022-07-31T01:10:16;22.73;;;15.67;;
70715;SDS011;59053;50.832;12.882;2022-07-31T01:12:50;22.17;;;14.82;;
70715;SDS011;59053;50.832;12.882;2022-07-31T01:15:18;24.05;;;15.55;;
70715;SDS011;59053;50.832;12.882;2022-07-31T01:17:44;23.70;;;14.65;;
70715;SDS011;59053;50.832;12.882;2022-07-31T01:20:11;25.63;;;15.50;;
70715;SDS011;59053;50.832;12.882;2022-07-31T01:23:21;27.50;;;15.40;;
70715;SDS011;59053;50.832;12.882;2022-07-31T01:25:45;21.35;;;14.45;;
70715;SDS011;59053;50.832;12.882;2022-07-31T01:31:44;23.48;;;14.98;;
70715;SDS011;59053;50.832;12.882;2022-07-31T01:34:30;23.02;;;15.05;;
70715;SDS011;59053;50.832;12.882;2022-07-31T01:37:05;23.10;;;14.77;;
70715;SDS011;59053;50.832;12.882;2022-07-31T01:39:33;19.70;;;14.32;;
70715;SDS011;59053;50.832;12.882;2022-07-31T01:42:02;23.98;;;14.73;;
70715;SDS011;59053;50.832;12.882;2022-07-31T01:44:29;25.77;;;15.52;;
70715;SDS011;59053;50.832;12.882;2022-07-31T01:46:55;21.17;;;14.98;;
70715;SDS011;59053;50.832;12.882;2022-07-31T01:49:22;22.67;;;14.70;;
70715;SDS011;59053;50.832;12.882;2022-07-31T01:51:49;24.35;;;14.77;;
70715;SDS011;59053;50.832;12.882;2022-07-31T01:54:15;21.90;;;14.53;;
70715;SDS011;59053;50.832;12.882;2022-07-31T01:56:42;21.63;;;14.23;;
70715;SDS011;59053;50.832;12.882;2022-07-31T01:59:08;20.05;;;13.88;;
70715;SDS011;59053;50.832;12.882;2022-07-31T02:01:45;20.77;;;14.23;;
70715;SDS011;59053;50.832;12.882;2022-07-31T02:04:12;22.35;;;14.30;;
70715;SDS011;59053;50.832;12.882;2022-07-31T02:06:38;20.47;;;14.17;;
70715;SDS011;59053;50.832;12.882;2022-07-31T02:09:04;21.95;;;14.07;;
70715;SDS011;59053;50.832;12.882;2022-07-31T02:11:30;21.02;;;14.60;;
70715;SDS011;59053;50.832;12.882;2022-07-31T02:13:55;22.50;;;14.90;;
70715;SDS011;59053;50.832;12.882;2022-07-31T02:16:21;21.60;;;14.23;;
70715;SDS011;59053;50.832;12.882;2022-07-31T02:18:53;20.13;;;14.20;;
70715;SDS011;59053;50.832;12.882;2022-07-31T02:21:23;24.00;;;14.10;;
70715;SDS011;59053;50.832;12.882;2022-07-31T02:23:49;22.00;;;13.73;;
70715;SDS011;59053;50.832;12.882;2022-07-31T02:26:16;20.48;;;13.82;;
70715;SDS011;59053;50.832;12.882;2022-07-31T02:28:42;20.67;;;13.50;;
70715;SDS011;59053;50.832;12.882;2022-07-31T02:31:09;20.73;;;13.30;;
70715;SDS011;59053;50.832;12.882;2022-07-31T02:33:37;20.90;;;13.18;;
70715;SDS011;59053;50.832;12.882;2022-07-31T02:36:04;17.25;;;12.75;;
70715;SDS011;59053;50.832;12.882;2022-07-31T02:38:30;19.17;;;12.88;;
70715;SDS011;59053;50.832;12.882;2022-07-31T02:41:00;20.50;;;13.85;;
70715;SDS011;59053;50.832;12.882;2022-07-31T02:43:28;19.30;;;13.57;;
70715;SDS011;59053;50.832;12.882;2022-07-31T02:45:57;21.00;;;12.82;;
70715;SDS011;59053;50.832;12.882;2022-07-31T02:48:23;19.45;;;13.55;;
70715;SDS011;59053;50.832;12.882;2022-07-31T02:50:50;19.52;;;13.30;;
70715;SDS011;59053;50.832;12.882;2022-07-31T02:53:16;20.57;;;13.57;;
70715;SDS011;59053;50.832;12.882;2022-07-31T02:55:42;21.80;;;13.20;;
70715;SDS011;59053;50.832;12.882;2022-07-31T02:58:09;22.05;;;14.25;;
70715;SDS011;59053;50.832;12.882;2022-07-31T03:00:34;22.60;;;14.47;;
70715;SDS011;59053;50.832;12.882;2022-07-31T03:03:00;20.85;;;14.20;;
70715;SDS011;59053;50.832;12.882;2022-07-31T03:05:26;22.50;;;14.07;;
70715;SDS011;59053;50.832;12.882;2022-07-31T03:07:52;20.80;;;14.02;;
70715;SDS011;59053;50.832;12.882;2022-07-31T03:10:17;20.40;;;13.73;;
70715;SDS011;59053;50.832;12.882;2022-07-31T03:13:02;18.95;;;12.68;;
70715;SDS011;59053;50.832;12.882;2022-07-31T03:15:28;20.27;;;13.40;;
70715;SDS011;59053;50.832;12.882;2022-07-31T03:17:54;18.63;;;12.70;;
70715;SDS011;59053;50.832;12.882;2022-07-31T03:20:30;17.98;;;12.48;;
70715;SDS011;59053;50.832;12.882;2022-07-31T03:22:56;19.13;;;12.90;;
70715;SDS011;59053;50.832;12.882;2022-07-31T03:25:22;22.10;;;12.10;;
70715;SDS011;59053;50.832;12.882;2022-07-31T03:27:48;16.33;;;12.00;;
70715;SDS011;59053;50.832;12.882;2022-07-31T03:30:15;16.98;;;12.38;;
70715;SDS011;59053;50.832;12.882;2022-07-31T03:32:43;19.42;;;12.10;;
70715;SDS011;59053;50.832;12.882;2022-07-31T03:35:09;19.13;;;12.40;;
70715;SDS011;59053;50.832;12.882;2022-07-31T03:37:35;19.38;;;12.70;;
70715;SDS011;59053;50.832;12.882;2022-07-31T03:40:00;20.03;;;12.40;;
70715;SDS011;59053;50.832;12.882;2022-07-31T03:42:26;18.02;;;12.23;;
70715;SDS011;59053;50.832;12.882;2022-07-31T03:44:52;16.80;;;12.03;;
70715;SDS011;59053;50.832;12.882;2022-07-31T03:47:18;17.55;;;11.95;;
70715;SDS011;59053;50.832;12.882;2022-07-31T03:49:43;18.77;;;12.53;;
70715;SDS011;59053;50.832;12.882;2022-07-31T03:52:09;17.92;;;12.00;;
70715;SDS011;59053;50.832;12.882;2022-07-31T03:54:35;17.97;;;12.47;;
70715;SDS011;59053;50.832;12.882;2022-07-31T03:57:12;18.73;;;12.95;;
70715;SDS011;59053;50.832;12.882;2022-07-31T03:59:39;19.65;;;12.68;;
70715;SDS011;59053;50.832;12.882;2022-07-31T04:02:05;19.65;;;12.95;;
70715;SDS011;59053;50.832;12.882;2022-07-31T04:04:36;18.27;;;12.15;;
70715;SDS011;59053;50.832;12.882;2022-07-31T04:07:03;19.77;;;12.43;;
70715;SDS011;59053;50.832;12.882;2022-07-31T04:09:29;18.23;;;12.50;;
70715;SDS011;59053;50.832;12.882;2022-07-31T04:11:54;17.70;;;11.77;;
70715;SDS011;59053;50.832;12.882;2022-07-31T04:14:20;17.33;;;11.90;;
70715;SDS011;59053;50.832;12.882;2022-07-31T04:16:45;17.20;;;11.87;;
70715;SDS011;59053;50.832;12.882;2022-07-31T04:19:11;18.15;;;11.88;;
70715;SDS011;59053;50.832;12.882;2022-07-31T04:21:37;17.77;;;11.90;;
70715;SDS011;59053;50.832;12.882;2022-07-31T04:24:03;16.42;;;11.73;;
70715;SDS011;59053;50.832;12.882;2022-07-31T04:26:47;16.53;;;11.43;;
70715;SDS011;59053;50.832;12.882;2022-07-31T04:29:14;17.65;;;11.25;;
70715;SDS011;59053;50.832;12.882;2022-07-31T04:31:40;16.77;;;11.43;;
70715;SDS011;59053;50.832;12.882;2022-07-31T04:34:08;15.73;;;10.90;;
70715;SDS011;59053;50.832;12.882;2022-07-31T04:36:33;16.47;;;11.23;;
70715;SDS011;59053;50.832;12.882;2022-07-31T04:38:59;15.13;;;10.53;;
70715;SDS011;59053;50.832;12.882;2022-07-31T04:41:24;15.63;;;10.75;;
70715;SDS011;59053;50.832;12.882;2022-07-31T04:43:50;16.03;;;10.73;;
70715;SDS011;59053;50.832;12.882;2022-07-31T04:46:15;15.33;;;10.60;;
70715;SDS011;59053;50.832;12.882;2022-07-31T04:48:41;16.05;;;11.20;;
70715;SDS011;59053;50.832;12.882;2022-07-31T04:51:07;15.60;;;10.50;;
70715;SDS011;59053;50.832;12.882;2022-07-31T04:53:32;14.87;;;10.53;;
70715;SDS011;59053;50.832;12.882;2022-07-31T04:55:59;14.88;;;10.57;;
70715;SDS011;59053;50.832;12.882;2022-07-31T04:58:45;17.98;;;10.05;;
70715;SDS011;59053;50.832;12.882;2022-07-31T05:01:11;14.07;;;8.93;;
70715;SDS011;59053;50.832;12.882;2022-07-31T05:03:36;14.23;;;9.57;;
70715;SDS011;59053;50.832;12.882;2022-07-31T05:06:08;15.17;;;9.77;;
70715;SDS011;59053;50.832;12.882;2022-07-31T05:08:35;14.32;;;9.25;;
70715;SDS011;59053;50.832;12.882;2022-07-31T05:11:00;13.90;;;9.30;;
70715;SDS011;59053;50.832;12.882;2022-07-31T05:13:44;14.43;;;9.90;;
70715;SDS011;59053;50.832;12.882;2022-07-31T05:16:10;12.80;;;9.13;;
70715;SDS011;59053;50.832;12.882;2022-07-31T05:18:36;13.27;;;8.65;;
70715;SDS011;59053;50.832;12.882;2022-07-31T05:21:20;12.15;;;9.07;;
70715;SDS011;59053;50.832;12.882;2022-07-31T05:23:54;17.40;;;9.43;;
70715;SDS011;59053;50.832;12.882;2022-07-31T05:26:38;11.82;;;8.70;;
70715;SDS011;59053;50.832;12.882;2022-07-31T05:29:04;12.02;;;8.80;;
70715;SDS011;59053;50.832;12.882;2022-07-31T05:31:29;13.87;;;8.73;;
70715;SDS011;59053;50.832;12.882;2022-07-31T05:33:55;11.80;;;9.00;;
70715;SDS011;59053;50.832;12.882;2022-07-31T05:36:23;14.73;;;9.00;;
70715;SDS011;59053;50.832;12.882;2022-07-31T05:38:49;12.55;;;8.85;;
70715;SDS011;59053;50.832;12.882;2022-07-31T05:41:37;12.15;;;8.73;;
70715;SDS011;59053;50.832;12.882;2022-07-31T05:44:11;13.63;;;8.52;;
70715;SDS011;59053;50.832;12.882;2022-07-31T05:46:46;12.35;;;8.73;;
70715;SDS011;59053;50.832;12.882;2022-07-31T05:49:12;12.70;;;8.80;;
70715;SDS011;59053;50.832;12.882;2022-07-31T05:51:37;11.77;;;8.90;;
70715;SDS011;59053;50.832;12.882;2022-07-31T05:54:03;11.30;;;8.77;;
70715;SDS011;59053;50.832;12.882;2022-07-31T05:56:47;12.02;;;8.25;;
70715;SDS011;59053;50.832;12.882;2022-07-31T05:59:14;13.30;;;8.33;;
70715;SDS011;59053;50.832;12.882;2022-07-31T06:01:40;11.85;;;8.52;;
70715;SDS011;59053;50.832;12.882;2022-07-31T06:04:06;13.65;;;9.35;;
70715;SDS011;59053;50.832;12.882;2022-07-31T06:06:38;12.35;;;8.00;;
70715;SDS011;59053;50.832;12.882;2022-07-31T06:09:03;12.20;;;8.90;;
70715;SDS011;59053;50.832;12.882;2022-07-31T06:11:31;11.15;;;8.25;;
70715;SDS011;59053;50.832;12.882;2022-07-31T06:13:56;11.93;;;7.90;;
70715;SDS011;59053;50.832;12.882;2022-07-31T06:16:27;12.38;;;8.70;;
70715;SDS011;59053;50.832;12.882;2022-07-31T06:18:53;12.13;;;8.60;;
70715;SDS011;59053;50.832;12.882;2022-07-31T06:21:18;11.68;;;8.40;;
70715;SDS011;59053;50.832;12.882;2022-07-31T06:23:44;12.60;;;8.87;;
70715;SDS011;59053;50.832;12.882;2022-07-31T06:26:18;11.20;;;8.27;;
70715;SDS011;59053;50.832;12.882;2022-07-31T06:28:43;13.03;;;8.43;;
70715;SDS011;59053;50.832;12.882;2022-07-31T06:31:14;13.17;;;8.70;;
70715;SDS011;59053;50.832;12.882;2022-07-31T06:33:42;15.15;;;8.02;;
70715;SDS011;59053;50.832;12.882;2022-07-31T06:36:07;11.87;;;8.60;;
70715;SDS011;59053;50.832;12.882;2022-07-31T06:38:38;12.32;;;8.48;;
70715;SDS011;59053;50.832;12.882;2022-07-31T06:41:39;13.98;;;7.90;;
70715;SDS011;59053;50.832;12.882;2022-07-31T06:44:25;13.00;;;8.33;;
70715;SDS011;59053;50.832;12.882;2022-07-31T06:47:10;10.38;;;7.72;;
70715;SDS011;59053;50.832;12.882;2022-07-31T06:49:54;11.98;;;7.80;;
70715;SDS011;59053;50.832;12.882;2022-07-31T06:52:23;10.85;;;8.13;;
70715;SDS011;59053;50.832;12.882;2022-07-31T06:54:49;11.07;;;8.50;;
70715;SDS011;59053;50.832;12.882;2022-07-31T06:57:14;12.02;;;8.63;;
70715;SDS011;59053;50.832;12.882;2022-07-31T06:59:40;11.20;;;8.17;;
70715;SDS011;59053;50.832;12.882;2022-07-31T07:02:06;10.97;;;8.07;;
70715;SDS011;59053;50.832;12.882;2022-07-31T07:04:32;13.20;;;8.80;;
70715;SDS011;59053;50.832;12.882;2022-07-31T07:06:57;9.73;;;7.50;;
70715;SDS011;59053;50.832;12.882;2022-07-31T07:09:23;10.97;;;8.20;;
70715;SDS011;59053;50.832;12.882;2022-07-31T07:11:48;13.25;;;9.10;;
70715;SDS011;59053;50.832;12.882;2022-07-31T07:14:14;11.30;;;8.50;;
70715;SDS011;59053;50.832;12.882;2022-07-31T07:16:40;12.02;;;8.13;;
70715;SDS011;59053;50.832;12.882;2022-07-31T07:19:05;15.23;;;8.13;;
70715;SDS011;59053;50.832;12.882;2022-07-31T07:21:31;13.63;;;8.47;;
70715;SDS011;59053;50.832;12.882;2022-07-31T07:23:56;10.32;;;7.97;;
70715;SDS011;59053;50.832;12.882;2022-07-31T07:26:45;11.17;;;7.67;;
70715;SDS011;59053;50.832;12.882;2022-07-31T07:29:10;16.05;;;8.18;;
70715;SDS011;59053;50.832;12.882;2022-07-31T07:31:36;11.50;;;7.73;;
70715;SDS011;59053;50.832;12.882;2022-07-31T07:34:01;12.03;;;8.27;;
70715;SDS011;59053;50.832;12.882;2022-07-31T07:36:30;12.63;;;8.50;;
70715;SDS011;59053;50.832;12.882;2022-07-31T07:39:00;11.20;;;8.52;;
70715;SDS011;59053;50.832;12.882;2022-07-31T07:41:27;12.30;;;8.88;;
70715;SDS011;59053;50.832;12.882;2022-07-31T07:43:53;12.43;;;8.13;;
70715;SDS011;59053;50.832;12.882;2022-07-31T07:46:21;12.55;;;8.68;;
70715;SDS011;59053;50.832;12.882;2022-07-31T07:48:50;12.70;;;8.40;;
70715;SDS011;59053;50.832;12.882;2022-07-31T07:51:24;11.47;;;8.60;;
70715;SDS011;59053;50.832;12.882;2022-07-31T07:53:54;12.95;;;8.50;;
70715;SDS011;59053;50.832;12.882;2022-07-31T07:56:48;12.30;;;9.48;;
70715;SDS011;59053;50.832;12.882;2022-07-31T07:59:23;10.15;;;8.40;;
70715;SDS011;59053;50.832;12.882;2022-07-31T08:02:09;11.90;;;7.72;;
70715;SDS011;59053;50.832;12.882;2022-07-31T08:04:36;12.00;;;8.90;;
70715;SDS011;59053;50.832;12.882;2022-07-31T08:07:02;10.68;;;8.30;;
70715;SDS011;59053;50.832;12.882;2022-07-31T08:09:32;9.45;;;7.72;;
70715;SDS011;59053;50.832;12.882;2022-07-31T08:12:17;11.68;;;8.38;;
70715;SDS011;59053;50.832;12.882;2022-07-31T08:15:18;9.73;;;7.43;;
70715;SDS011;59053;50.832;12.882;2022-07-31T08:17:52;11.10;;;8.10;;
70715;SDS011;59053;50.832;12.882;2022-07-31T08:20:19;10.18;;;7.65;;
70715;SDS011;59053;50.832;12.882;2022-07-31T08:22:45;10.10;;;7.28;;
70715;SDS011;59053;50.832;12.882;2022-07-31T08:25:10;14.50;;;8.07;;
70715;SDS011;59053;50.832;12.882;2022-07-31T08:27:36;10.88;;;8.25;;
70715;SDS011;59053;50.832;12.882;2022-07-31T08:30:01;11.23;;;7.90;;
70715;SDS011;59053;50.832;12.882;2022-07-31T08:32:28;13.00;;;7.57;;
70715;SDS011;59053;50.832;12.882;2022-07-31T08:35:12;9.30;;;7.03;;
70715;SDS011;59053;50.832;12.882;2022-07-31T08:37:39;11.25;;;7.72;;
70715;SDS011;59053;50.832;12.882;2022-07-31T08:40:06;10.27;;;7.45;;
70715;SDS011;59053;50.832;12.882;2022-07-31T08:42:31;11.03;;;7.80;;
70715;SDS011;59053;50.832;12.882;2022-07-31T08:44:57;9.95;;;6.65;;
70715;SDS011;59053;50.832;12.882;2022-07-31T08:47:27;10.40;;;6.90;;
70715;SDS011;59053;50.832;12.882;2022-07-31T08:49:56;13.50;;;7.27;;
70715;SDS011;59053;50.832;12.882;2022-07-31T08:52:22;11.40;;;6.70;;
70715;SDS011;59053;50.832;12.882;2022-07-31T08:54:59;8.93;;;6.93;;
70715;SDS011;59053;50.832;12.882;2022-07-31T08:57:25;14.13;;;7.40;;
70715;SDS011;59053;50.832;12.882;2022-07-31T08:59:54;16.67;;;7.13;;
70715;SDS011;59053;50.832;12.882;2022-07-31T09:02:20;9.93;;;8.07;;
70715;SDS011;59053;50.832;12.882;2022-07-31T09:05:18;12.07;;;7.75;;
70715;SDS011;59053;50.832;12.882;2022-07-31T09:07:44;12.43;;;7.57;;
70715;SDS011;59053;50.832;12.882;2022-07-31T09:10:23;9.23;;;6.88;;
70715;SDS011;59053;50.832;12.882;2022-07-31T09:12:50;11.47;;;6.73;;
70715;SDS011;59053;50.832;12.882;2022-07-31T09:15:20;9.68;;;6.07;;
70715;SDS011;59053;50.832;12.882;2022-07-31T09:17:48;8.75;;;6.35;;
70715;SDS011;59053;50.832;12.882;2022-07-31T09:20:16;8.00;;;6.40;;
70715;SDS011;59053;50.832;12.882;2022-07-31T09:22:42;9.85;;;6.63;;
70715;SDS011;59053;50.832;12.882;2022-07-31T09:25:09;8.90;;;6.00;;
70715;SDS011;59053;50.832;12.882;2022-07-31T09:27:37;8.55;;;6.28;;
70715;SDS011;59053;50.832;12.882;2022-07-31T09:30:03;9.83;;;6.03;;
70715;SDS011;59053;50.832;12.882;2022-07-31T09:32:55;8.77;;;6.32;;
70715;SDS011;59053;50.832;12.882;2022-07-31T09:35:48;11.07;;;6.10;;
70715;SDS011;59053;50.832;12.882;2022-07-31T09:38:14;9.93;;;5.53;;
70715;SDS011;59053;50.832;12.882;2022-07-31T09:41:11;17.15;;;5.13;;
70715;SDS011;59053;50.832;12.882;2022-07-31T09:43:55;10.20;;;6.20;;
70715;SDS011;59053;50.832;12.882;2022-07-31T09:46:24;9.50;;;5.43;;
70715;SDS011;59053;50.832;12.882;2022-07-31T09:48:52;8.55;;;5.50;;
70715;SDS011;59053;50.832;12.882;2022-07-31T09:51:18;10.20;;;5.72;;
70715;SDS011;59053;50.832;12.882;2022-07-31T09:53:45;8.43;;;5.60;;
70715;SDS011;59053;50.832;12.882;2022-07-31T09:56:46;9.60;;;5.20;;
70715;SDS011;59053;50.832;12.882;2022-07-31T09:59:13;7.18;;;5.40;;
70715;SDS011;59053;50.832;12.882;2022-07-31T10:01:39;8.20;;;5.33;;
70715;SDS011;59053;50.832;12.882;2022-07-31T10:04:05;9.00;;;4.88;;
70715;SDS011;59053;50.832;12.882;2022-07-31T10:06:31;8.00;;;5.20;;
70715;SDS011;59053;50.832;12.882;2022-07-31T10:08:59;7.68;;;5.15;;
70715;SDS011;59053;50.832;12.882;2022-07-31T10:11:52;9.60;;;5.68;;
70715;SDS011;59053;50.832;12.882;2022-07-31T10:14:27;8.50;;;5.47;;
70715;SDS011;59053;50.832;12.882;2022-07-31T10:16:53;7.72;;;5.07;;
70715;SDS011;59053;50.832;12.882;2022-07-31T10:19:41;11.40;;;5.40;;
70715;SDS011;59053;50.832;12.882;2022-07-31T10:22:33;7.97;;;5.63;;
70715;SDS011;59053;50.832;12.882;2022-07-31T10:25:00;7.50;;;5.50;;
70715;SDS011;59053;50.832;12.882;2022-07-31T10:27:27;8.00;;;5.00;;
70715;SDS011;59053;50.832;12.882;2022-07-31T10:29:59;8.93;;;5.40;;
70715;SDS011;59053;50.832;12.882;2022-07-31T10:32:24;7.97;;;5.30;;
70715;SDS011;59053;50.832;12.882;2022-07-31T10:35:22;7.97;;;5.00;;
70715;SDS011;59053;50.832;12.882;2022-07-31T10:38:14;11.50;;;6.35;;
70715;SDS011;59053;50.832;12.882;2022-07-31T10:41:19;7.77;;;4.67;;
70715;SDS011;59053;50.832;12.882;2022-07-31T10:44:08;8.55;;;4.57;;
70715;SDS011;59053;50.832;12.882;2022-07-31T10:47:13;6.82;;;4.60;;
70715;SDS011;59053;50.832;12.882;2022-07-31T10:49:58;8.43;;;4.90;;
70715;SDS011;59053;50.832;12.882;2022-07-31T10:52:38;7.28;;;4.32;;
70715;SDS011;59053;50.832;12.882;2022-07-31T10:55:26;10.10;;;4.50;;
70715;SDS011;59053;50.832;12.882;2022-07-31T10:58:13;9.20;;;4.68;;
70715;SDS011;59053;50.832;12.882;2022-07-31T11:01:06;7.32;;;4.50;;
70715;SDS011;59053;50.832;12.882;2022-07-31T11:03:52;7.60;;;4.22;;
70715;SDS011;59053;50.832;12.882;2022-07-31T11:06:47;6.22;;;4.13;;
70715;SDS011;59053;50.832;12.882;2022-07-31T11:09:32;6.70;;;4.20;;
70715;SDS011;59053;50.832;12.882;2022-07-31T11:12:33;6.57;;;3.90;;
70715;SDS011;59053;50.832;12.882;2022-07-31T11:15:22;7.65;;;3.78;;
70715;SDS011;59053;50.832;12.882;2022-07-31T11:18:11;6.47;;;3.65;;
70715;SDS011;59053;50.832;12.882;2022-07-31T11:20:43;5.38;;;3.97;;
70715;SDS011;59053;50.832;12.882;2022-07-31T11:23:12;5.97;;;4.00;;
70715;SDS011;59053;50.832;12.882;2022-07-31T11:25:42;7.68;;;4.18;;
70715;SDS011;59053;50.832;12.882;2022-07-31T11:28:15;6.45;;;4.00;;
70715;SDS011;59053;50.832;12.882;2022-07-31T11:33:37;7.35;;;4.00;;
70715;SDS011;59053;50.832;12.882;2022-07-31T11:36:12;6.97;;;4.20;;
70715;SDS011;59053;50.832;12.882;2022-07-31T11:38:43;6.95;;;3.85;;
70715;SDS011;59053;50.832;12.882;2022-07-31T11:41:09;5.57;;;3.80;;
70715;SDS011;59053;50.832;12.882;2022-07-31T11:43:34;8.20;;;4.00;;
70715;SDS011;59053;50.832;12.882;2022-07-31T11:46:01;6.82;;;4.00;;
70715;SDS011;59053;50.832;12.882;2022-07-31T11:48:27;7.00;;;4.10;;
70715;SDS011;59053;50.832;12.882;2022-07-31T11:50:55;6.13;;;3.92;;
70715;SDS011;59053;50.832;12.882;2022-07-31T11:53:21;8.30;;;3.70;;
70715;SDS011;59053;50.832;12.882;2022-07-31T11:55:57;6.13;;;2.80;;
70715;SDS011;59053;50.832;12.882;2022-07-31T11:58:24;6.47;;;3.05;;
70715;SDS011;59053;50.832;12.882;2022-07-31T12:00:52;5.22;;;2.90;;
70715;SDS011;59053;50.832;12.882;2022-07-31T12:03:20;5.35;;;2.88;;
70715;SDS011;59053;50.832;12.882;2022-07-31T12:05:47;4.85;;;2.80;;
70715;SDS011;59053;50.832;12.882;2022-07-31T12:08:14;4.23;;;3.10;;
70715;SDS011;59053;50.832;12.882;2022-07-31T12:10:39;7.20;;;2.80;;
70715;SDS011;59053;50.832;12.882;2022-07-31T12:13:09;5.18;;;2.80;;
70715;SDS011;59053;50.832;12.882;2022-07-31T12:15:37;4.05;;;2.78;;
70715;SDS011;59053;50.832;12.882;2022-07-31T12:18:03;4.00;;;2.70;;
70715;SDS011;59053;50.832;12.882;2022-07-31T12:20:29;3.67;;;2.78;;
70715;SDS011;59053;50.832;12.882;2022-07-31T12:22:58;7.07;;;2.87;;
70715;SDS011;59053;50.832;12.882;2022-07-31T12:25:24;6.15;;;2.80;;
70715;SDS011;59053;50.832;12.882;2022-07-31T12:27:53;3.70;;;2.92;;
70715;SDS011;59053;50.832;12.882;2022-07-31T12:30:20;4.55;;;2.90;;
70715;SDS011;59053;50.832;12.882;2022-07-31T12:32:48;6.95;;;2.88;;
70715;SDS011;59053;50.832;12.882;2022-07-31T12:35:14;5.87;;;3.30;;
70715;SDS011;59053;50.832;12.882;2022-07-31T12:37:43;5.40;;;3.38;;
70715;SDS011;59053;50.832;12.882;2022-07-31T12:40:20;5.53;;;3.10;;
70715;SDS011;59053;50.832;12.882;2022-07-31T12:42:46;5.50;;;3.35;;
70715;SDS011;59053;50.832;12.882;2022-07-31T12:45:11;6.07;;;3.42;;
70715;SDS011;59053;50.832;12.882;2022-07-31T12:47:37;5.43;;;3.60;;
70715;SDS011;59053;50.832;12.882;2022-07-31T12:50:02;5.07;;;3.50;;
70715;SDS011;59053;50.832;12.882;2022-07-31T12:52:28;3.87;;;2.50;;
70715;SDS011;59053;50.832;12.882;2022-07-31T12:54:55;7.50;;;2.90;;
70715;SDS011;59053;50.832;12.882;2022-07-31T12:57:21;4.22;;;3.03;;
70715;SDS011;59053;50.832;12.882;2022-07-31T12:59:46;2.93;;;2.53;;
70715;SDS011;59053;50.832;12.882;2022-07-31T13:02:11;6.23;;;2.50;;
70715;SDS011;59053;50.832;12.882;2022-07-31T13:04:37;4.93;;;2.70;;
70715;SDS011;59053;50.832;12.882;2022-07-31T13:07:02;3.40;;;2.23;;
70715;SDS011;59053;50.832;12.882;2022-07-31T13:09:28;5.50;;;2.60;;
70715;SDS011;59053;50.832;12.882;2022-07-31T13:11:53;4.20;;;2.50;;
70715;SDS011;59053;50.832;12.882;2022-07-31T13:14:19;3.60;;;2.50;;
70715;SDS011;59053;50.832;12.882;2022-07-31T13:16:46;4.73;;;2.80;;
70715;SDS011;59053;50.832;12.882;2022-07-31T13:19:12;3.88;;;2.45;;
70715;SDS011;59053;50.832;12.882;2022-07-31T13:21:38;4.60;;;2.50;;
70715;SDS011;59053;50.832;12.882;2022-07-31T13:24:03;4.63;;;2.07;;
70715;SDS011;59053;50.832;12.882;2022-07-31T13:26:33;6.53;;;2.45;;
70715;SDS011;59053;50.832;12.882;2022-07-31T13:28:59;4.50;;;2.50;;
70715;SDS011;59053;50.832;12.882;2022-07-31T13:31:24;4.30;;;2.50;;
70715;SDS011;59053;50.832;12.882;2022-07-31T13:33:50;3.83;;;2.40;;
70715;SDS011;59053;50.832;12.882;2022-07-31T13:36:15;3.15;;;2.50;;
70715;SDS011;59053;50.832;12.882;2022-07-31T13:38:41;5.73;;;2.40;;
70715;SDS011;59053;50.832;12.882;2022-07-31T13:41:06;3.10;;;2.30;;
70715;SDS011;59053;50.832;12.882;2022-07-31T13:43:51;3.78;;;2.50;;
70715;SDS011;59053;50.832;12.882;2022-07-31T13:46:20;2.60;;;2.30;;
70715;SDS011;59053;50.832;12.882;2022-07-31T13:48:46;2.88;;;2.40;;
70715;SDS011;59053;50.832;12.882;2022-07-31T13:51:13;4.23;;;2.57;;
70715;SDS011;59053;50.832;12.882;2022-07-31T13:53:38;3.53;;;2.30;;
70715;SDS011;59053;50.832;12.882;2022-07-31T13:56:04;2.77;;;2.20;;
70715;SDS011;59053;50.832;12.882;2022-07-31T13:58:29;2.95;;;2.35;;
70715;SDS011;59053;50.832;12.882;2022-07-31T14:00:55;4.37;;;2.90;;
70715;SDS011;59053;50.832;12.882;2022-07-31T14:03:21;6.03;;;2.78;;
70715;SDS011;59053;50.832;12.882;2022-07-31T14:05:48;3.03;;;2.60;;
70715;SDS011;59053;50.832;12.882;2022-07-31T14:08:13;3.50;;;2.80;;
70715;SDS011;59053;50.832;12.882;2022-07-31T14:10:39;3.93;;;2.50;;
70715;SDS011;59053;50.832;12.882;2022-07-31T14:13:04;2.93;;;2.53;;
70715;SDS011;59053;50.832;12.882;2022-07-31T14:15:29;3.87;;;2.50;;
70715;SDS011;59053;50.832;12.882;2022-07-31T14:17:55;7.40;;;2.73;;
70715;SDS011;59053;50.832;12.882;2022-07-31T14:20:20;3.38;;;2.35;;
70715;SDS011;59053;50.832;12.882;2022-07-31T14:22:46;11.83;;;2.70;;
70715;SDS011;59053;50.832;12.882;2022-07-31T14:25:11;4.23;;;2.40;;
70715;SDS011;59053;50.832;12.882;2022-07-31T14:27:37;4.00;;;2.50;;
70715;SDS011;59053;50.832;12.882;2022-07-31T14:30:04;4.07;;;2.70;;
70715;SDS011;59053;50.832;12.882;2022-07-31T14:32:30;4.60;;;2.50;;
70715;SDS011;59053;50.832;12.882;2022-07-31T14:34:56;2.63;;;2.30;;
70715;SDS011;59053;50.832;12.882;2022-07-31T14:37:21;4.15;;;2.50;;
70715;SDS011;59053;50.832;12.882;2022-07-31T14:39:46;3.57;;;2.60;;
70715;SDS011;59053;50.832;12.882;2022-07-31T14:42:12;5.97;;;2.80;;
70715;SDS011;59053;50.832;12.882;2022-07-31T14:44:38;3.90;;;2.60;;